Accueil
METAR-TAF:

METAR-TAF

Aéroports :

Tripoli, Libye

Aéroport de Milaga

latitude: 32-54N, longitude: 13-17E, altitude: 11 m

Observation

Le bulletin a été fait il y a 47 minutes, à 21:55 UTC
Vent 2 kt de sud-est
Température 30°C
Humidité 22%
Pression 1013 hPa
Visibilité: 7000 m
Quelques nuages à une hauteur de 4000 ft

METAR: HLLM 272155Z 14002KT 7000 FEW040 30/06 Q1013

Heure: 00:42 (22:42 UTC)

Prévision

Le bulletin a été fait il y a 5 heures et 42 minutes, à 17:00 UTC
Prévision valable du 27 à 18 UTC au 28 à 18 UTC
Vent 10 kt de est
Visibilité 10 km ou plus
pas de nuages en-dessous de 1500 mètres et pas de cumulonimbus.
Evoluant progressivement
du 27 à 22 UTC au 27 à 24 UTC
Vent 2 kt de direction variable
Visibilité: 8000 m
Evoluant progressivement
du 28 à 16 UTC au 28 à 18 UTC
Vent 10 kt de est/sud-est

TAF: HLLM 271700Z 2718/2818 10010KT CAVOK BECMG 2722/2724 VRB02KT 8000 NSC BECMG 2816/2818 12010KT

Observations et prévisions météorologiques de plus de 4000 aéroports (messages METAR et TAF).

Les stations disponibles sont représentées par des disques jaunes et rouges sur la carte.

Passer la souris dessus pour voir le nom de la station.

Cliquer dessus pour voir les observations et prévisions météorologiques.

Pour changer de carte: cliquez sur les boutons verts avec une croix noire pour zoomer, sur le bouton vert avec un tiret pour effectuer un zoom arrière, ou sur les flèches vertes pour les cartes adjacentes.


METAR-TAF: